Time;durP1;ratioP1;P1;durP2;ratioP2;P2;SDS_P1;SDS_P2;PMS_P1;PMS_P2;Temp;Humidity;BMP_temperature;BMP_pressure;BME280_temperature;BME280_humidity;BME280_pressure;Samples;Min_cycle;Max_cycle;Signal;HPM_P1;HPM_P2
2021/05/18 00:00:31;;;;;;;3.37;2.40;;;;;;;10.29;89.10;100079.55;128393;1101;62030;-73
2021/05/18 00:03:08;;;;;;;4.70;2.83;;;;;;;10.30;89.12;100080.37;128352;1101;62115;-73
2021/05/18 00:05:38;;;;;;;4.13;2.53;;;;;;;10.30;89.25;100080.37;128410;1101;62288;-73
2021/05/18 00:08:08;;;;;;;5.03;3.57;;;;;;;10.29;88.66;100089.31;128441;1101;63043;-73
2021/05/18 00:13:25;;;;;;;5.73;3.30;;;;;;;10.28;88.53;100085.00;128401;1101;63347;-74
2021/05/18 00:15:56;;;;;;;3.23;2.33;;;;;;;10.27;87.09;100101.94;128387;1101;62426;-73
2021/05/18 00:18:24;;;;;;;4.37;3.03;;;;;;;10.24;87.89;100081.09;128409;1101;62552;-73
2021/05/18 00:20:52;;;;;;;3.87;2.73;;;;;;;10.18;87.58;100094.09;128397;1101;62321;-73
2021/05/18 00:23:19;;;;;;;5.43;3.43;;;;;;;10.12;87.90;100100.14;128413;1101;62382;-73
2021/05/18 00:25:46;;;;;;;4.67;3.43;;;;;;;10.06;88.78;100100.06;128377;1101;62021;-73
2021/05/18 00:28:13;;;;;;;4.27;2.90;;;;;;;10.00;88.91;100101.62;128370;1101;62237;-73
2021/05/18 00:30:41;;;;;;;5.37;3.30;;;;;;;9.96;89.01;100100.34;128343;1101;62111;-73
2021/05/18 00:33:17;;;;;;;5.13;3.30;;;;;;;9.90;89.78;100096.63;128354;1101;62913;-73
2021/05/18 00:35:45;;;;;;;6.47;4.07;;;;;;;9.89;90.05;100110.05;128373;1101;62163;-73
2021/05/18 00:38:13;;;;;;;4.93;3.50;;;;;;;9.87;90.74;100117.36;128427;1101;62300;-74
2021/05/18 00:40:42;;;;;;;4.77;3.43;;;;;;;9.86;90.51;100123.65;128327;1101;62272;-73
2021/05/18 00:43:12;;;;;;;5.80;4.03;;;;;;;9.86;90.99;100121.00;128336;1101;62256;-73
2021/05/18 00:45:48;;;;;;;6.07;4.17;;;;;;;9.87;91.14;100120.01;128293;1101;62463;-74
2021/05/18 00:48:17;;;;;;;6.90;4.73;;;;;;;9.88;90.82;100124.28;128349;1101;61789;-74
2021/05/18 00:50:54;;;;;;;8.37;4.83;;;;;;;9.91;90.20;100123.94;128355;1101;62478;-74
2021/05/18 00:53:23;;;;;;;10.43;5.70;;;;;;;9.91;89.96;100129.23;128360;1101;62025;-73
2021/05/18 00:55:55;;;;;;;8.60;4.90;;;;;;;9.90;89.24;100133.72;128391;1101;62098;-74
2021/05/18 01:01:03;;;;;;;9.57;5.37;;;;;;;9.89;89.61;100125.95;128166;1101;62076;-75
2021/05/18 01:03:32;;;;;;;10.10;5.63;;;;;;;9.86;88.66;100137.73;128383;1101;62808;-74
2021/05/18 01:08:47;;;;;;;12.05;6.40;;;;;;;9.82;89.16;100135.61;128369;1101;62337;-74
2021/05/18 01:11:16;;;;;;;12.63;6.87;;;;;;;9.78;88.98;100145.78;128443;1101;62806;-74
2021/05/18 01:13:43;;;;;;;12.70;7.10;;;;;;;9.75;89.83;100148.77;128388;1101;62561;-74
2021/05/18 01:16:12;;;;;;;10.60;5.23;;;;;;;9.74;89.46;100149.80;128348;1101;62960;-74
2021/05/18 01:18:43;;;;;;;13.90;6.63;;;;;;;9.72;89.99;100157.09;128338;1101;62364;-74
2021/05/18 01:21:12;;;;;;;13.77;7.43;;;;;;;9.69;89.39;100153.00;128431;1101;62106;-74
2021/05/18 01:23:41;;;;;;;16.53;7.60;;;;;;;9.68;88.57;100156.63;128387;1101;62291;-74
2021/05/18 01:26:10;;;;;;;19.73;8.50;;;;;;;9.65;88.61;100157.01;128446;1101;62222;-74
2021/05/18 01:28:37;;;;;;;15.77;7.03;;;;;;;9.63;87.89;100164.31;128386;1101;63210;-75
2021/05/18 01:31:06;;;;;;;13.33;7.47;;;;;;;9.57;87.56;100173.80;128102;1103;62611;-75
2021/05/18 01:33:34;;;;;;;12.40;7.13;;;;;;;9.52;87.54;100185.92;128379;1101;62346;-75
2021/05/18 01:36:07;;;;;;;13.27;7.37;;;;;;;9.47;86.63;100183.00;128142;1101;62522;-75
2021/05/18 01:38:43;;;;;;;12.13;6.67;;;;;;;9.39;86.98;100179.45;128354;1101;63061;-75
2021/05/18 01:44:00;;;;;;;14.77;6.30;;;;;;;9.32;87.92;100183.79;128289;1101;62687;-75
2021/05/18 01:46:29;;;;;;;13.60;7.17;;;;;;;9.28;87.68;100197.56;128298;1101;62983;-75
2021/05/18 01:49:02;;;;;;;10.93;5.30;;;;;;;9.27;88.14;100207.34;128087;1101;62406;-75
2021/05/18 01:51:35;;;;;;;16.97;7.47;;;;;;;9.21;88.32;100213.34;128358;1101;62082;-75
2021/05/18 01:54:11;;;;;;;10.70;6.50;;;;;;;9.19;87.82;100221.45;128368;1101;62136;-74
2021/05/18 01:56:54;;;;;;;12.47;6.07;;;;;;;9.17;88.17;100220.80;128181;1102;62396;-74
2021/05/18 01:59:24;;;;;;;13.83;6.33;;;;;;;9.16;88.18;100228.94;128370;1101;62359;-74
2021/05/18 02:01:55;;;;;;;16.37;9.00;;;;;;;9.16;88.56;100226.30;128426;1101;62129;-74
2021/05/18 02:04:36;;;;;;;11.57;6.40;;;;;;;9.17;87.72;100231.39;128436;1101;62161;-75
2021/05/18 02:07:07;;;;;;;9.10;5.13;;;;;;;9.19;88.24;100234.68;128164;1102;62646;-75
2021/05/18 02:09:34;;;;;;;10.77;5.20;;;;;;;9.20;87.81;100235.49;128404;1101;62194;-75
2021/05/18 02:12:01;;;;;;;9.90;6.07;;;;;;;9.19;87.27;100242.62;128419;1101;62341;-75
2021/05/18 02:14:30;;;;;;;14.70;6.57;;;;;;;9.18;87.36;100238.34;128364;1101;62159;-75
2021/05/18 02:17:12;;;;;;;15.57;6.60;;;;;;;9.19;88.21;100236.52;128395;1101;62480;-75
2021/05/18 02:25:09;;;;;;;12.27;6.33;;;;;;;9.24;86.35;100255.31;128377;1101;62239;-75
2021/05/18 02:27:36;;;;;;;14.50;7.73;;;;;;;9.24;87.27;100265.91;128424;1101;61996;-75
2021/05/18 02:30:05;;;;;;;10.70;5.97;;;;;;;9.20;86.50;100264.61;128380;1101;63332;-75
2021/05/18 02:32:33;;;;;;;12.70;6.60;;;;;;;9.19;86.86;100268.27;128433;1101;62864;-75
2021/05/18 02:35:05;;;;;;;12.50;6.10;;;;;;;9.18;85.81;100270.09;128387;1101;62604;-74
2021/05/18 02:37:33;;;;;;;11.53;4.83;;;;;;;9.18;86.37;100271.93;128418;1101;63220;-75
2021/05/18 02:40:06;;;;;;;16.63;7.00;;;;;;;9.16;86.98;100276.57;128390;1101;62955;-75
2021/05/18 02:42:34;;;;;;;8.70;5.57;;;;;;;9.12;86.09;100291.97;128418;1101;62253;-74
2021/05/18 02:50:16;;;;;;;12.43;6.37;;;;;;;9.11;87.08;100287.66;128378;1101;62439;-75
2021/05/18 02:52:43;;;;;;;13.67;7.43;;;;;;;9.12;86.42;100285.86;128394;1101;63020;-75
2021/05/18 02:55:18;;;;;;;12.47;6.63;;;;;;;9.11;86.48;100286.84;128336;1101;62083;-75
2021/05/18 02:57:47;;;;;;;12.67;6.83;;;;;;;9.11;86.82;100287.66;128483;1101;62017;-75
2021/05/18 03:00:18;;;;;;;12.60;7.87;;;;;;;9.11;87.00;100294.78;128370;1101;63563;-75
2021/05/18 03:02:46;;;;;;;10.77;6.80;;;;;;;9.10;87.13;100293.15;128404;1101;62099;-76
2021/05/18 03:05:13;;;;;;;11.13;6.20;;;;;;;9.09;86.78;100294.95;128415;1101;61923;-75
2021/05/18 03:07:40;;;;;;;13.47;6.83;;;;;;;9.09;86.95;100294.13;128407;1101;62021;-75
2021/05/18 03:10:08;;;;;;;15.87;7.57;;;;;;;9.08;86.35;100287.20;128240;1102;62136;-76
2021/05/18 03:12:35;;;;;;;8.67;4.57;;;;;;;9.10;87.39;100295.80;128340;1101;62287;-75
2021/05/18 03:15:04;;;;;;;12.33;4.87;;;;;;;9.11;86.90;100286.84;128376;1101;62601;-75
2021/05/18 03:17:36;;;;;;;12.43;6.80;;;;;;;9.12;86.93;100288.50;128407;1101;62004;-75
2021/05/18 03:20:10;;;;;;;14.30;7.57;;;;;;;9.10;86.92;100296.61;128342;1101;62048;-75
2021/05/18 03:22:37;;;;;;;14.07;7.70;;;;;;;9.11;86.04;100292.95;128379;1101;62317;-74
2021/05/18 03:25:05;;;;;;;18.63;9.67;;;;;;;9.11;86.34;100297.42;128385;1100;62597;-74
2021/05/18 03:27:33;;;;;;;16.43;7.97;;;;;;;9.09;86.34;100304.72;128393;1101;62762;-74
2021/05/18 03:30:12;;;;;;;15.50;7.40;;;;;;;9.09;86.14;100310.01;128379;1101;62170;-75
2021/05/18 03:35:25;;;;;;;18.07;8.47;;;;;;;9.03;86.37;100308.05;128408;1101;62783;-75
2021/05/18 03:37:57;;;;;;;13.60;6.73;;;;;;;9.01;85.76;100308.25;128410;1101;62268;-75
2021/05/18 03:40:28;;;;;;;15.67;8.07;;;;;;;9.00;85.95;100311.06;128440;1101;62044;-75
2021/05/18 03:45:48;;;;;;;14.80;7.50;;;;;;;8.97;86.21;100302.47;128413;1101;62060;-76
2021/05/18 03:53:57;;;;;;;14.50;7.67;;;;;;;8.97;86.47;100299.83;128427;1101;62676;-76
2021/05/18 04:04:35;;;;;;;13.63;6.10;;;;;;;9.11;86.20;100303.53;128402;1101;62254;-74
2021/05/18 04:12:55;;;;;;;15.67;8.13;;;;;;;9.16;86.14;100308.33;128388;1101;63303;-74
2021/05/18 04:18:18;;;;;;;16.57;6.67;;;;;;;9.21;85.99;100313.09;128361;1101;62055;-75
2021/05/18 04:23:36;;;;;;;13.10;6.40;;;;;;;9.30;85.48;100323.43;128363;1101;62752;-74
2021/05/18 04:42:53;;;;;;;17.10;8.53;;;;;;;9.66;84.16;100332.62;128445;1101;63548;-74
2021/05/18 04:53:11;;;;;;;18.30;8.77;;;;;;;9.89;84.22;100343.19;128458;1101;62071;-74
2021/05/18 05:01:16;;;;;;;17.30;7.07;;;;;;;9.94;83.45;100346.94;128403;1101;62306;-74
2021/05/18 05:09:07;;;;;;;14.40;6.30;;;;;;;9.93;81.66;100347.14;128362;1101;62249;-74
2021/05/18 05:14:26;;;;;;;8.17;4.33;;;;;;;9.96;81.83;100349.41;128188;1101;62351;-75
2021/05/18 05:16:53;;;;;;;15.13;7.97;;;;;;;10.01;82.29;100355.02;128349;1101;62513;-75
2021/05/18 05:19:21;;;;;;;16.83;7.73;;;;;;;10.11;82.59;100352.91;128362;1101;62381;-75
2021/05/18 05:21:49;;;;;;;19.03;9.00;;;;;;;10.24;82.08;100359.42;128474;1101;62157;-75
2021/05/18 05:24:16;;;;;;;12.40;6.63;;;;;;;10.31;81.20;100353.26;128354;1101;62753;-76
2021/05/18 05:26:43;;;;;;;10.93;4.80;;;;;;;10.42;80.12;100359.94;128391;1101;62357;-75
2021/05/18 05:29:10;;;;;;;9.93;4.63;;;;;;;10.57;79.47;100362.59;128406;1101;62300;-75
2021/05/18 05:31:38;;;;;;;10.13;4.60;;;;;;;10.68;79.66;100369.27;128374;1101;62399;-77
2021/05/18 05:34:06;;;;;;;10.77;5.30;;;;;;;10.69;79.11;100365.59;128302;1101;62222;-74
2021/05/18 05:36:33;;;;;;;17.27;7.27;;;;;;;10.71;78.25;100368.89;128386;1101;62031;-74
2021/05/18 05:39:04;;;;;;;8.63;4.50;;;;;;;10.71;77.59;100374.20;128357;1101;62547;-74
2021/05/18 05:41:32;;;;;;;10.07;4.67;;;;;;;10.72;78.26;100373.20;128359;1101;62486;-74
2021/05/18 05:43:59;;;;;;;9.70;3.77;;;;;;;10.76;77.31;100377.14;128346;1100;62142;-74
2021/05/18 05:46:26;;;;;;;11.77;5.30;;;;;;;10.78;76.58;100375.94;128341;1101;62366;-74
2021/05/18 05:48:53;;;;;;;8.33;4.03;;;;;;;10.80;76.84;100389.03;128366;1101;62309;-74
2021/05/18 05:51:26;;;;;;;7.20;3.53;;;;;;;10.81;77.02;100380.86;128410;1101;62425;-75
2021/05/18 05:53:55;;;;;;;12.30;4.80;;;;;;;10.84;76.28;100390.31;128425;1101;62088;-75
2021/05/18 05:56:22;;;;;;;11.43;4.70;;;;;;;10.83;75.46;100393.95;128332;1101;62042;-75
2021/05/18 05:58:50;;;;;;;14.07;5.10;;;;;;;10.81;75.52;100391.48;128348;1101;62182;-75
2021/05/18 06:01:17;;;;;;;11.67;4.17;;;;;;;10.83;76.23;100399.27;128272;1101;62268;-75
2021/05/18 06:03:45;;;;;;;7.90;4.03;;;;;;;10.82;76.32;100405.59;128372;1101;62806;-75
2021/05/18 06:06:13;;;;;;;13.23;4.87;;;;;;;10.85;76.38;100407.05;128267;1101;63478;-75
2021/05/18 06:08:45;;;;;;;12.67;5.27;;;;;;;10.90;77.05;100409.97;128366;1101;63100;-75
2021/05/18 06:11:16;;;;;;;9.50;5.63;;;;;;;10.94;77.44;100414.71;128356;1101;62268;-74
2021/05/18 06:14:13;;;;;;;12.70;5.33;;;;;;;10.91;77.12;100404.48;128295;1101;62169;-77
2021/05/18 06:17:00;;;;;;;13.63;5.80;;;;;;;10.95;76.97;100404.95;128278;1101;62102;-75
2021/05/18 06:49:24;;;;;;;13.33;4.70;;;;;;;11.20;75.92;100421.39;128435;1101;62042;-76
2021/05/18 06:51:52;;;;;;;8.57;4.70;;;;;;;11.32;74.85;100427.03;128443;1101;63125;-78
2021/05/18 06:54:19;;;;;;;8.03;4.23;;;;;;;11.43;74.38;100429.20;128034;1102;63589;-78
2021/05/18 06:56:49;;;;;;;11.23;5.23;;;;;;;11.51;73.40;100421.12;128448;1101;62234;-77
2021/05/18 07:01:46;;;;;;;8.77;4.50;;;;;;;11.77;73.78;100436.54;128393;1101;62190;-77
2021/05/18 07:04:17;;;;;;;6.80;3.20;;;;;;;11.90;71.99;100432.38;127555;1101;62817;-73
2021/05/18 07:07:15;;;;;;;11.05;4.25;;;;;;;11.91;71.51;100434.03;127490;1101;63174;-75
2021/05/18 07:09:43;;;;;;;9.90;4.80;;;;;;;11.91;70.86;100447.33;128288;1101;64072;-75
2021/05/18 07:12:10;;;;;;;5.93;3.73;;;;;;;11.90;70.79;100443.00;128427;1101;62178;-75
2021/05/18 07:14:37;;;;;;;6.53;3.57;;;;;;;11.95;71.38;100443.28;128386;1101;63958;-75
2021/05/18 07:17:04;;;;;;;9.53;4.83;;;;;;;11.94;71.57;100446.94;128433;1101;62376;-75
2021/05/18 07:19:31;;;;;;;8.27;3.53;;;;;;;11.93;71.49;100447.95;128443;1101;62205;-76
2021/05/18 07:21:58;;;;;;;5.60;3.17;;;;;;;11.86;71.06;100457.66;128392;1101;62103;-75
2021/05/18 07:24:29;;;;;;;6.60;3.70;;;;;;;11.76;71.66;100450.00;128448;1101;61978;-75
2021/05/18 07:26:58;;;;;;;7.03;4.33;;;;;;;11.72;72.83;100451.39;128477;1101;62319;-75
2021/05/18 07:29:26;;;;;;;9.00;4.63;;;;;;;11.64;73.24;100444.34;128358;1101;62419;-75
2021/05/18 07:31:53;;;;;;;8.40;4.93;;;;;;;11.61;72.52;100452.71;128190;1101;62537;-73
2021/05/18 07:34:20;;;;;;;8.70;5.40;;;;;;;11.56;73.16;100457.74;128380;1101;62191;-77
2021/05/18 07:36:48;;;;;;;8.57;5.33;;;;;;;11.52;73.08;100457.31;128446;1101;62009;-77
2021/05/18 07:39:15;;;;;;;10.27;4.67;;;;;;;11.55;73.06;100464.08;128484;1101;62068;-78
2021/05/18 07:41:42;;;;;;;8.93;4.13;;;;;;;11.58;71.85;100459.23;128440;1101;62838;-77
2021/05/18 07:44:09;;;;;;;9.33;4.43;;;;;;;11.67;72.29;100462.59;128344;1101;63737;-77
2021/05/18 07:46:39;;;;;;;6.43;3.63;;;;;;;11.72;71.46;100464.68;128188;1101;62251;-77
2021/05/18 07:59:56;;;;;;;7.17;3.97;;;;;;;12.62;68.10;100461.44;128423;1101;64137;-76
2021/05/18 08:05:19;;;;;;;6.80;3.67;;;;;;;12.87;65.44;100460.96;128444;1101;62049;-75
2021/05/18 08:07:50;;;;;;;5.20;2.97;;;;;;;12.93;65.01;100457.52;128442;1101;62192;-76
2021/05/18 08:10:23;;;;;;;6.10;3.73;;;;;;;13.00;65.09;100461.03;128403;1101;62679;-76
2021/05/18 08:12:50;;;;;;;11.40;3.93;;;;;;;13.08;65.36;100462.72;128374;1101;62246;-76
2021/05/18 08:20:58;;;;;;;5.37;2.60;;;;;;;13.05;60.40;100458.62;128283;1101;62188;-76
2021/05/18 08:48:43;;;;;;;10.40;4.47;;;;;;;13.46;57.05;100473.78;128388;1101;62341;-73
2021/05/18 09:47:40;;;;;;;4.37;2.10;;;;;;;14.88;50.68;100477.23;128241;1102;62252;-72
2021/05/18 10:36:37;;;;;;;7.43;4.70;;;;;;;15.92;48.43;100447.83;128489;1101;62043;-70
2021/05/18 10:38:49;;;;;;;4.17;2.27;;;;;;;16.21;49.11;100451.71;128425;1101;62833;-70
2021/05/18 10:41:19;;;;;;;3.70;2.37;;;;;;;16.54;47.90;100452.48;128433;1101;62448;-72
2021/05/18 10:43:59;;;;;;;4.93;2.30;;;;;;;16.68;46.08;100451.30;128481;1101;62077;-71
2021/05/18 10:46:29;;;;;;;2.80;1.97;;;;;;;16.81;46.29;100445.02;128394;1101;63441;-73
2021/05/18 10:49:07;;;;;;;3.90;2.00;;;;;;;16.66;45.48;100446.19;128379;1101;62289;-72
2021/05/18 10:51:54;;;;;;;6.47;3.40;;;;;;;16.54;46.24;100439.91;128484;1101;62143;-72
2021/05/18 10:54:30;;;;;;;3.80;2.13;;;;;;;16.42;47.57;100436.31;128422;1101;62455;-72
2021/05/18 10:56:59;;;;;;;4.47;2.30;;;;;;;16.56;46.31;100443.19;128191;1102;62255;-72
2021/05/18 10:59:37;;;;;;;3.83;2.67;;;;;;;16.87;47.02;100436.94;128375;1101;62258;-71
2021/05/18 11:02:23;;;;;;;4.30;2.20;;;;;;;17.22;43.65;100435.51;128466;1101;62165;-71
2021/05/18 11:04:53;;;;;;;3.73;2.00;;;;;;;17.38;42.44;100429.50;128443;1101;62172;-70
2021/05/18 11:07:28;;;;;;;7.70;5.50;;;;;;;17.58;41.06;100420.40;128413;1101;62244;-71
2021/05/18 11:09:55;;;;;;;3.03;1.20;;;;;;;17.43;39.87;100431.53;128366;1101;62167;-72
2021/05/18 11:12:24;;;;;;;2.50;1.50;;;;;;;17.24;40.66;100426.19;128375;1101;62211;-71
2021/05/18 11:15:04;;;;;;;4.50;1.87;;;;;;;16.95;41.30;100425.09;128368;1101;62342;-71
2021/05/18 11:17:46;;;;;;;4.40;2.10;;;;;;;16.57;43.13;100433.29;128396;1101;62182;-72
2021/05/18 11:26:06;;;;;;;5.97;1.77;;;;;;;15.75;46.92;100431.48;128435;1101;62071;-72
2021/05/18 11:28:40;;;;;;;2.88;1.78;;;;;;;15.70;47.33;100433.92;128449;1101;62538;-71
2021/05/18 11:31:17;;;;;;;4.93;1.70;;;;;;;15.65;47.46;100431.09;128486;1101;64364;-70
2021/05/18 11:33:49;;;;;;;5.17;2.40;;;;;;;15.63;47.62;100435.83;128440;1101;62184;-70
2021/05/18 11:36:21;;;;;;;5.80;2.40;;;;;;;15.66;48.09;100432.72;128425;1101;62075;-71
2021/05/18 11:38:57;;;;;;;4.60;2.40;;;;;;;15.83;48.87;100433.90;128462;1101;62106;-73
2021/05/18 11:41:30;;;;;;;3.60;2.63;;;;;;;16.25;46.24;100422.66;128463;1101;62156;-71
2021/05/18 11:43:59;;;;;;;6.20;3.13;;;;;;;16.85;45.79;100430.14;128191;1101;62776;-71
2021/05/18 11:46:28;;;;;;;5.20;3.27;;;;;;;17.25;44.04;100424.32;128329;1101;63124;-71
2021/05/18 11:49:07;;;;;;;5.60;2.90;;;;;;;17.23;43.15;100423.73;128602;1101;62722;-71
2021/05/18 11:51:52;;;;;;;5.87;3.03;;;;;;;17.11;44.20;100418.32;128581;1101;62108;-71
2021/05/18 11:54:30;;;;;;;4.17;2.50;;;;;;;17.08;45.25;100419.56;128397;1101;62132;-72
2021/05/18 11:56:58;;;;;;;4.27;2.90;;;;;;;17.11;44.61;100415.64;128407;1101;63126;-70
2021/05/18 11:59:27;;;;;;;3.87;2.20;;;;;;;17.12;43.31;100418.08;128331;1101;62411;-70
2021/05/18 12:02:05;;;;;;;2.87;1.90;;;;;;;17.20;43.50;100419.64;128459;1101;62373;-70
2021/05/18 12:04:37;;;;;;;4.97;2.50;;;;;;;17.21;43.64;100417.77;128424;1101;62211;-71
2021/05/18 12:07:14;;;;;;;4.00;2.13;;;;;;;17.72;44.29;100414.62;128411;1101;62481;-71
2021/05/18 12:09:47;;;;;;;3.40;1.90;;;;;;;18.10;43.33;100416.09;128396;1101;62036;-71
2021/05/18 12:12:15;;;;;;;3.93;2.40;;;;;;;18.22;43.29;100424.18;128444;1101;62305;-71
2021/05/18 12:14:48;;;;;;;3.90;2.07;;;;;;;18.24;41.92;100414.03;128412;1101;62075;-70
2021/05/18 12:17:31;;;;;;;3.37;1.77;;;;;;;18.23;41.51;100415.06;128405;1101;62700;-71
2021/05/18 12:20:00;;;;;;;5.70;2.20;;;;;;;18.36;40.34;100423.95;128442;1101;62034;-71
2021/05/18 12:22:27;;;;;;;2.63;1.80;;;;;;;18.33;40.69;100423.36;128456;1101;62858;-72
2021/05/18 12:24:57;;;;;;;2.83;1.90;;;;;;;18.27;41.39;100416.23;128435;1101;62020;-72
2021/05/18 12:27:25;;;;;;;3.83;1.90;;;;;;;18.21;40.15;100421.72;128497;1101;61950;-72
2021/05/18 12:29:57;;;;;;;3.90;1.53;;;;;;;18.21;40.38;100427.09;128440;1101;62348;-72
2021/05/18 12:32:35;;;;;;;5.40;1.50;;;;;;;18.34;40.31;100427.70;128392;1101;62208;-72
2021/05/18 12:35:05;;;;;;;4.17;1.73;;;;;;;18.52;38.17;100425.94;128442;1101;62260;-71
2021/05/18 12:37:45;;;;;;;2.80;1.80;;;;;;;19.18;38.39;100421.19;128178;1101;63406;-71
2021/05/18 12:40:17;;;;;;;4.63;1.87;;;;;;;20.01;36.82;100412.75;128506;1101;63249;-71
2021/05/18 12:42:46;;;;;;;2.80;1.60;;;;;;;20.69;35.10;100417.03;128352;1096;62839;-71
2021/05/18 12:45:16;;;;;;;5.47;3.07;;;;;;;20.73;34.81;100415.47;128356;1101;64156;-71
2021/05/18 12:47:54;;;;;;;4.27;2.20;;;;;;;20.33;34.03;100421.88;128272;1101;62246;-72
2021/05/18 12:50:22;;;;;;;5.87;1.83;;;;;;;19.92;34.82;100415.04;128304;1101;62288;-72
2021/05/18 12:52:52;;;;;;;4.10;2.20;;;;;;;19.46;36.32;100419.56;128368;1101;62108;-72
2021/05/18 12:55:28;;;;;;;3.55;2.10;;;;;;;19.18;38.51;100420.38;128331;1101;62358;-71
2021/05/18 12:58:07;;;;;;;8.00;4.90;;;;;;;18.90;39.19;100419.28;128359;1101;62370;-72
2021/05/18 13:00:41;;;;;;;3.37;2.37;;;;;;;18.80;39.91;100421.74;128399;1101;62454;-70
2021/05/18 13:03:16;;;;;;;2.90;2.30;;;;;;;18.73;40.24;100429.91;128398;1101;62075;-71
2021/05/18 13:05:47;;;;;;;4.90;3.13;;;;;;;18.74;39.76;100426.15;128438;1101;62397;-71
2021/05/18 13:08:29;;;;;;;4.50;2.50;;;;;;;18.74;39.75;100426.15;128432;1101;62089;-72
2021/05/18 13:11:17;;;;;;;5.50;3.40;;;;;;;18.69;40.38;100429.55;128447;1101;61993;-72
2021/05/18 13:13:46;;;;;;;4.17;2.83;;;;;;;18.63;41.04;100430.48;128354;1101;62422;-72
2021/05/18 13:16:15;;;;;;;3.97;2.50;;;;;;;18.43;40.25;100424.67;128358;1101;62460;-71
2021/05/18 13:18:55;;;;;;;5.03;2.37;;;;;;;18.22;41.02;100429.55;128412;1101;62051;-71
2021/05/18 13:21:33;;;;;;;3.77;2.20;;;;;;;18.17;41.27;100428.59;128415;1102;62283;-72
2021/05/18 13:26:40;;;;;;;5.33;2.37;;;;;;;18.21;40.68;100411.82;128486;1101;62503;-72
2021/05/18 13:29:19;;;;;;;3.27;2.00;;;;;;;18.23;41.12;100414.25;128449;1101;62162;-72
2021/05/18 13:31:49;;;;;;;4.60;3.37;;;;;;;18.28;40.92;100422.45;128440;1101;63266;-71
2021/05/18 13:34:36;;;;;;;3.87;2.70;;;;;;;18.40;40.53;100422.44;128310;1101;62214;-72
2021/05/18 13:37:03;;;;;;;5.83;3.17;;;;;;;18.49;41.13;100421.05;128409;1101;62147;-72
2021/05/18 13:39:31;;;;;;;8.10;3.40;;;;;;;18.53;40.49;100416.81;128423;1101;62065;-71
2021/05/18 13:41:58;;;;;;;3.93;2.47;;;;;;;18.47;40.00;100415.91;128421;1101;62205;-72
2021/05/18 13:44:25;;;;;;;4.57;2.90;;;;;;;18.25;40.48;100417.52;128419;1101;62800;-72
2021/05/18 13:46:53;;;;;;;8.73;3.70;;;;;;;18.11;41.06;100416.94;128358;1101;62709;-72
2021/05/18 13:49:20;;;;;;;4.93;3.07;;;;;;;17.95;41.03;100422.97;128387;1101;62154;-72
2021/05/18 13:51:47;;;;;;;5.47;3.87;;;;;;;17.74;41.33;100417.05;128393;1101;63045;-71
2021/05/18 13:54:30;;;;;;;5.73;2.80;;;;;;;17.48;42.78;100427.11;128457;1101;62239;-72
2021/05/18 13:56:59;;;;;;;6.27;3.43;;;;;;;17.28;42.24;100423.89;128440;1101;62024;-72
2021/05/18 13:59:27;;;;;;;5.20;3.30;;;;;;;17.12;42.91;100430.66;128454;1101;62077;-72
2021/05/18 14:01:55;;;;;;;5.90;3.40;;;;;;;16.99;44.39;100420.92;128394;1101;62161;-72
2021/05/18 14:04:22;;;;;;;4.83;2.90;;;;;;;16.78;44.52;100429.38;128434;1101;62806;-72
2021/05/18 14:07:00;;;;;;;6.17;2.80;;;;;;;16.72;44.21;100425.72;128463;1101;62159;-73
2021/05/18 14:09:27;;;;;;;6.20;2.80;;;;;;;16.67;44.73;100420.22;128158;1101;62396;-73
2021/05/18 14:11:54;;;;;;;10.37;6.33;;;;;;;16.65;46.49;100419.62;128412;1101;62420;-72
2021/05/18 14:14:21;;;;;;;6.33;3.60;;;;;;;16.62;44.96;100423.56;128441;1101;62159;-73
2021/05/18 14:16:48;;;;;;;5.27;2.60;;;;;;;16.71;45.21;100427.58;128463;1101;62101;-72
2021/05/18 14:19:16;;;;;;;5.73;3.20;;;;;;;16.81;44.47;100431.63;128409;1101;62177;-73
2021/05/18 14:21:44;;;;;;;6.63;2.80;;;;;;;16.93;46.93;100439.76;128339;1101;61985;-73
2021/05/18 14:24:18;;;;;;;6.00;3.20;;;;;;;17.65;48.00;100421.92;128382;1101;62456;-71
2021/05/18 14:26:46;;;;;;;5.27;3.17;;;;;;;17.44;48.01;100442.01;128389;1101;62261;-74
2021/05/18 14:29:13;;;;;;;8.10;3.60;;;;;;;17.33;48.43;100432.88;128388;1101;62871;-74
2021/05/18 14:31:40;;;;;;;6.37;2.60;;;;;;;17.28;49.28;100434.61;128421;1101;62111;-74
2021/05/18 14:34:08;;;;;;;2.97;1.90;;;;;;;17.26;49.82;100428.66;128398;1101;62283;-75
2021/05/18 14:36:36;;;;;;;7.73;2.90;;;;;;;17.09;50.24;100434.63;128112;1102;62029;-74
2021/05/18 14:39:06;;;;;;;8.40;5.00;;;;;;;16.90;50.72;100432.99;128261;1102;62164;-74
2021/05/18 14:44:24;;;;;;;7.17;3.87;;;;;;;16.36;52.15;100440.67;128441;1101;62189;-74
2021/05/18 14:47:00;;;;;;;4.07;2.47;;;;;;;15.96;52.45;100450.88;128356;1101;63106;-74
2021/05/18 14:55:03;;;;;;;7.80;3.43;;;;;;;14.90;56.83;100461.00;128411;1101;63040;-74
2021/05/18 14:57:30;;;;;;;7.17;3.47;;;;;;;14.65;57.92;100453.64;128188;1101;62267;-73
2021/05/18 14:59:57;;;;;;;5.03;2.87;;;;;;;14.46;58.96;100451.78;128453;1101;62246;-73
2021/05/18 15:02:25;;;;;;;5.67;3.70;;;;;;;14.23;59.96;100455.67;128463;1101;62172;-74
2021/05/18 15:04:52;;;;;;;5.93;3.27;;;;;;;14.06;59.62;100455.25;128463;1101;61645;-74
2021/05/18 15:07:19;;;;;;;4.67;2.20;;;;;;;13.91;60.76;100451.96;128380;1101;62840;-74
2021/05/18 15:09:51;;;;;;;6.57;3.63;;;;;;;13.77;61.01;100456.46;128150;1101;62162;-74
2021/05/18 15:12:18;;;;;;;4.53;2.83;;;;;;;13.70;61.28;100460.13;128438;1101;62580;-73
2021/05/18 15:14:46;;;;;;;12.10;6.93;;;;;;;13.63;61.37;100455.59;128496;1101;61975;-72
2021/05/18 15:17:15;;;;;;;6.93;4.40;;;;;;;13.56;61.87;100461.94;128493;1101;62281;-72
2021/05/18 15:19:44;;;;;;;7.67;3.40;;;;;;;13.59;61.83;100464.20;128478;1101;64624;-71
2021/05/18 15:22:13;;;;;;;17.00;10.17;;;;;;;13.59;62.03;100464.20;128285;1101;62407;-72
2021/05/18 15:24:42;;;;;;;9.80;6.03;;;;;;;13.60;62.06;100466.67;128355;1101;63101;-72
2021/05/18 15:27:10;;;;;;;5.03;3.53;;;;;;;13.60;62.53;100465.83;128439;1101;62053;-71
2021/05/18 15:29:37;;;;;;;6.07;3.87;;;;;;;13.69;61.99;100471.83;128473;1101;62136;-72
2021/05/18 15:32:06;;;;;;;4.13;2.47;;;;;;;13.79;62.00;100465.08;128377;1101;62550;-72
2021/05/18 15:34:35;;;;;;;4.97;2.20;;;;;;;13.98;61.47;100467.97;128427;1101;62456;-71
2021/05/18 15:37:04;;;;;;;12.70;6.37;;;;;;;14.12;61.48;100471.48;128319;1101;62597;-72
2021/05/18 15:39:31;;;;;;;10.97;7.80;;;;;;;14.25;59.97;100474.97;128353;1101;62013;-71
2021/05/18 15:41:58;;;;;;;13.03;6.07;;;;;;;14.36;60.26;100467.39;128459;1101;62301;-74
2021/05/18 15:44:25;;;;;;;6.17;3.50;;;;;;;14.43;58.44;100465.56;128428;1101;62178;-79
2021/05/18 15:46:52;;;;;;;5.43;2.90;;;;;;;14.48;57.57;100473.75;128404;1101;62454;-78
2021/05/18 15:49:19;;;;;;;5.15;3.10;;;;;;;14.51;59.00;100472.52;128436;1101;62227;-78
2021/05/18 15:51:46;;;;;;;3.37;1.80;;;;;;;14.53;57.19;100476.61;128478;1101;62108;-78
2021/05/18 15:54:13;;;;;;;3.10;1.97;;;;;;;14.53;54.05;100471.27;128459;1101;62063;-78
2021/05/18 15:56:41;;;;;;;2.50;1.57;;;;;;;14.53;53.96;100473.95;128433;1101;62056;-78
2021/05/18 15:59:08;;;;;;;2.70;1.67;;;;;;;14.54;54.43;100470.27;128435;1101;63778;-79
2021/05/18 16:01:37;;;;;;;3.93;1.60;;;;;;;14.56;53.78;100470.09;128493;1101;62316;-79
2021/05/18 16:04:08;;;;;;;2.10;1.23;;;;;;;14.59;54.18;100469.67;128416;1101;62568;-78
2021/05/18 16:06:40;;;;;;;3.07;1.40;;;;;;;14.60;54.27;100474.81;128460;1101;61780;-78
2021/05/18 16:09:12;;;;;;;3.03;1.47;;;;;;;14.63;54.43;100473.57;128451;1101;62958;-77
2021/05/18 16:11:41;;;;;;;2.83;1.67;;;;;;;14.60;55.74;100476.64;128437;1101;62237;-78
2021/05/18 16:14:09;;;;;;;4.23;2.20;;;;;;;14.59;56.46;100478.49;128432;1101;62092;-78
2021/05/18 16:16:37;;;;;;;4.50;2.27;;;;;;;14.54;56.49;100483.61;128438;1101;62144;-79
2021/05/18 16:19:05;;;;;;;3.10;2.00;;;;;;;14.51;56.88;100483.19;128455;1101;62175;-78